createdAt,value
2022-10-11T00:01:12.823Z,7.66
2022-10-11T00:06:23.177Z,7.76
2022-10-11T00:10:51.717Z,7.76
2022-10-11T00:16:00.230Z,7.99
2022-10-11T00:21:08.674Z,7.99
2022-10-11T00:26:16.515Z,7.82
2022-10-11T00:31:26.297Z,7.82
2022-10-11T00:36:34.783Z,7.97
2022-10-11T00:41:43.237Z,7.97
2022-10-11T00:46:56.272Z,7.78
2022-10-11T00:52:01.501Z,7.78
2022-10-11T00:57:11.234Z,7.8
2022-10-11T01:02:35.721Z,7.8
2022-10-11T01:08:24.767Z,7.72
2022-10-11T01:13:34.538Z,7.72
2022-10-11T01:18:43.034Z,8.03
2022-10-11T01:23:12.199Z,8.03
2022-10-11T01:28:21.730Z,7.84
2022-10-11T01:33:29.819Z,7.84
2022-10-11T01:38:38.280Z,8.01
2022-10-11T01:43:46.122Z,8.01
2022-10-11T01:48:54.593Z,7.53
2022-10-11T01:54:03.075Z,7.53
2022-10-11T01:59:13.473Z,7.87
2022-10-11T02:04:27.409Z,7.94
2022-10-11T02:09:42.297Z,7.94
2022-10-11T02:14:57.821Z,7.87
2022-10-11T02:20:13.983Z,7.87
2022-10-11T02:25:28.218Z,7.69
2022-10-11T02:30:43.135Z,7.69
2022-10-11T02:35:57.322Z,7.71
2022-10-11T02:41:12.889Z,7.71
2022-10-11T02:46:29.689Z,7.81
2022-10-11T02:51:45.817Z,7.81
2022-10-11T02:57:01.338Z,7.87
2022-10-11T03:02:17.532Z,7.87
2022-10-11T03:07:33.869Z,8
2022-10-11T03:12:47.896Z,8
2022-10-11T03:17:36.417Z,7.94
2022-10-11T03:21:46.460Z,7.94
2022-10-11T03:27:34.843Z,7.93
2022-10-11T03:32:03.384Z,7.93
2022-10-11T03:37:52.462Z,7.88
2022-10-11T03:42:21.402Z,7.88
2022-10-11T03:48:10.699Z,7.51
2022-10-11T03:53:20.470Z,7.51
2022-10-11T03:58:30.215Z,7.53
2022-10-11T04:02:59.401Z,7.53
2022-10-11T04:08:12.679Z,7.57
2022-10-11T04:13:18.291Z,7.57
2022-10-11T04:19:35.833Z,7.41
2022-10-11T04:24:52.360Z,7.41
2022-10-11T04:30:08.743Z,7.71
2022-10-11T04:33:56.036Z,7.71
2022-10-11T04:39:05.825Z,7.84
2022-10-11T04:44:14.286Z,7.84
2022-10-11T04:49:23.407Z,7.67
2022-10-11T04:54:31.886Z,7.67
2022-10-11T04:59:40.996Z,7.5
2022-10-11T05:04:49.479Z,7.77
2022-10-11T05:09:57.958Z,7.77
2022-10-11T05:15:07.090Z,7.82
2022-10-11T05:20:15.557Z,7.82
2022-10-11T05:25:24.678Z,7.84
2022-10-11T05:30:33.790Z,7.84
2022-10-11T05:35:42.288Z,7.8
2022-10-11T05:40:52.041Z,7.8
2022-10-11T05:46:00.519Z,8.12
2022-10-11T05:51:09.021Z,8.12
2022-10-11T05:56:19.364Z,7.69
2022-10-11T06:01:36.091Z,7.69
2022-10-11T06:06:52.842Z,8.24
2022-10-11T06:12:09.015Z,8.24
2022-10-11T06:17:26.431Z,7.59
2022-10-11T06:22:42.602Z,7.59
2022-10-11T06:27:59.561Z,8.19
2022-10-11T06:33:17.004Z,8.19
2022-10-11T06:38:33.004Z,7.92
2022-10-11T06:43:49.321Z,7.92
2022-10-11T06:49:06.760Z,8.17
2022-10-11T06:54:24.198Z,8.17
2022-10-11T07:04:59.080Z,7.86
2022-10-11T07:10:15.080Z,7.86
2022-10-11T07:15:32.522Z,7.86
2022-10-11T07:20:50.001Z,7.82
2022-10-11T07:26:07.968Z,7.82
2022-10-11T07:31:23.754Z,7.87
2022-10-11T07:35:49.897Z,7.87
2022-10-11T07:40:17.200Z,7.88
2022-10-11T07:45:37.382Z,7.88
2022-10-11T07:50:54.132Z,7.74
2022-10-11T07:56:11.409Z,7.74
2022-10-11T08:00:40.147Z,8.08
2022-10-11T08:05:11.246Z,8.08
2022-10-11T08:10:20.355Z,8.07
2022-10-11T08:15:30.547Z,7.96
2022-10-11T08:20:39.256Z,7.96
2022-10-11T08:25:48.379Z,8.45
2022-10-11T08:30:58.115Z,8.45
2022-10-11T08:36:10.033Z,8.3
2022-10-11T08:41:15.741Z,8.3
2022-10-11T08:46:24.856Z,8.12
2022-10-11T08:51:33.944Z,8.12
2022-10-11T08:56:42.514Z,8.34
2022-10-11T09:01:51.819Z,8.34
2022-10-11T09:07:05.385Z,8.2
2022-10-11T09:12:40.766Z,8.2
2022-10-11T09:17:17.670Z,8.11
2022-10-11T09:22:31.063Z,8.11
2022-10-11T09:28:04.336Z,8.36
2022-10-11T09:32:55.716Z,8.36
2022-10-11T09:38:12.523Z,7.91
2022-10-11T09:43:29.963Z,7.91
2022-10-11T09:48:46.555Z,7.96
2022-10-11T09:54:03.656Z,7.96
2022-10-11T09:59:22.434Z,7.74
2022-10-11T10:04:38.632Z,7.74
2022-10-11T10:09:54.671Z,7.81
2022-10-11T10:15:12.044Z,7.81
2022-10-11T10:20:27.557Z,7.88
2022-10-11T10:25:44.993Z,7.88
2022-10-11T10:31:02.592Z,7.75
2022-10-11T10:36:18.761Z,7.75
2022-10-11T10:41:36.586Z,7.41
2022-10-11T10:46:52.920Z,7.41
2022-10-11T10:56:37.876Z,7.67
2022-10-11T11:01:53.911Z,7.68
2022-10-11T11:05:50.249Z,7.68
2022-10-11T11:11:36.844Z,7.79
2022-10-11T11:16:59.252Z,7.79
2022-10-11T11:19:42.931Z,7.8
2022-10-11T11:24:51.440Z,7.8
2022-10-11T11:30:01.156Z,7.74
2022-10-11T11:35:10.952Z,7.74
2022-10-11T11:40:20.051Z,7.71
2022-10-11T11:45:29.146Z,7.71
2022-10-11T11:50:39.552Z,7.76
2022-10-11T11:55:48.043Z,7.76
2022-10-11T12:00:57.221Z,7.67
2022-10-11T12:06:06.763Z,7.67
2022-10-11T12:11:22.907Z,7.7
2022-10-11T12:16:42.509Z,7.52
2022-10-11T12:21:57.324Z,7.52
2022-10-11T12:27:13.404Z,7.92
2022-10-11T12:32:32.474Z,7.92
2022-10-11T12:37:46.481Z,7.67
2022-10-11T12:43:03.744Z,7.67
2022-10-11T12:48:21.164Z,7.83
2022-10-11T13:04:10.360Z,7.89
2022-10-11T13:09:27.088Z,7.83
2022-10-11T13:30:36.360Z,7.87
2022-10-11T13:35:53.799Z,7.87
2022-10-11T13:41:09.801Z,7.82
2022-10-11T13:46:27.239Z,7.82
2022-10-11T13:51:45.322Z,8.05
2022-10-11T13:57:02.123Z,8.05
2022-10-11T14:02:19.601Z,7.75
2022-10-11T14:07:39.583Z,7.75
2022-10-11T14:12:50.603Z,7.78
2022-10-11T14:18:06.138Z,7.78
2022-10-11T14:21:42.461Z,7.93
2022-10-11T14:25:25.963Z,7.93
2022-10-11T14:30:35.926Z,7.86
2022-10-11T14:35:46.110Z,7.86
2022-10-11T14:40:55.228Z,7.88
2022-10-11T14:46:06.459Z,7.88
2022-10-11T14:51:14.751Z,7.91
2022-10-11T14:56:23.920Z,7.91
2022-10-11T15:01:35.926Z,7.83
2022-10-11T15:06:44.039Z,7.83
2022-10-11T15:11:54.011Z,7.68
2022-10-11T15:17:02.959Z,7.81
2022-10-11T15:22:12.032Z,7.81
2022-10-11T15:27:22.468Z,8.1
2022-10-11T15:32:32.177Z,8.1
2022-10-11T15:37:41.324Z,7.91
2022-10-11T15:42:51.079Z,7.91
2022-10-11T15:47:59.558Z,7.78
2022-10-11T15:53:08.706Z,7.78
2022-10-11T15:58:18.437Z,7.9
2022-10-11T16:03:27.611Z,7.9
2022-10-11T16:08:36.676Z,7.8
2022-10-11T16:13:44.514Z,7.8
2022-10-11T16:19:06.936Z,7.78
2022-10-11T16:24:23.190Z,7.78
2022-10-11T16:29:39.258Z,7.61
2022-10-11T16:34:54.122Z,7.61
2022-10-11T16:40:09.687Z,7.68
2022-10-11T16:45:24.542Z,7.68
2022-10-11T16:50:40.080Z,7.58
2022-10-11T17:01:09.922Z,7.78
2022-10-11T17:11:39.598Z,7.65
2022-10-11T17:22:10.138Z,7.77
2022-10-11T17:32:41.653Z,7.81
2022-10-11T17:37:59.386Z,7.81
2022-10-11T17:43:12.697Z,7.72
2022-10-11T17:48:29.500Z,7.72
2022-10-11T17:53:45.026Z,7.63
2022-10-11T17:58:10.571Z,7.63
2022-10-11T18:02:37.578Z,7.76
2022-10-11T18:07:53.515Z,7.76
2022-10-11T18:13:12.005Z,7.86
2022-10-11T18:18:24.540Z,7.86
2022-10-11T18:23:40.061Z,7.8
2022-10-11T18:28:56.887Z,7.89
2022-10-11T18:34:11.740Z,7.89
2022-10-11T18:39:31.123Z,7.84
2022-10-11T18:43:56.614Z,7.84
2022-10-11T18:48:27.736Z,7.79
2022-10-11T18:53:37.512Z,7.79
2022-10-11T18:58:47.870Z,7.92
2022-10-11T19:03:58.918Z,7.92
2022-10-11T19:09:07.400Z,7.93
2022-10-11T19:14:16.586Z,7.93
2022-10-11T19:19:26.272Z,8.05
2022-10-11T19:24:36.069Z,8.05
2022-10-11T19:29:45.141Z,7.94
2022-10-11T19:34:54.912Z,7.94
2022-10-11T19:40:04.047Z,7.68
2022-10-11T19:45:13.153Z,7.68
2022-10-11T19:50:22.315Z,7.77
2022-10-11T19:55:31.397Z,7.77
2022-10-11T20:00:40.539Z,7.88
2022-10-11T20:05:49.027Z,7.88
2022-10-11T20:10:57.480Z,7.79
2022-10-11T20:16:05.961Z,7.79
2022-10-11T20:21:15.751Z,7.7
2022-10-11T20:26:24.835Z,7.7
2022-10-11T20:31:33.351Z,7.93
2022-10-11T20:36:51.231Z,7.93
2022-10-11T20:42:08.218Z,7.84
2022-10-11T20:47:24.043Z,7.84
2022-10-11T20:52:40.356Z,7.94
2022-10-11T20:57:56.360Z,7.94
2022-10-11T21:03:12.732Z,7.81
2022-10-11T21:13:45.059Z,7.74
2022-10-11T21:19:00.998Z,7.74
2022-10-11T21:24:18.441Z,7.68
2022-10-11T21:29:35.889Z,7.58
2022-10-11T21:34:04.120Z,7.58
2022-10-11T21:38:37.006Z,7.71
2022-10-11T21:43:47.433Z,7.71
2022-10-11T21:48:57.809Z,7.78
2022-10-11T21:54:06.305Z,7.78
2022-10-11T21:59:16.045Z,7.68
2022-10-11T22:04:28.077Z,7.68
2022-10-11T22:09:42.932Z,8.05
2022-10-11T22:14:59.099Z,8.05
2022-10-11T22:20:13.335Z,7.72
2022-10-11T22:25:28.257Z,7.72
2022-10-11T22:30:43.733Z,7.55
2022-10-11T22:35:59.264Z,7.55
2022-10-11T22:41:15.450Z,7.64
2022-10-11T22:46:31.584Z,7.64
2022-10-11T22:51:47.085Z,7.82
2022-10-11T22:57:02.649Z,7.82
2022-10-11T23:02:18.140Z,7.85
2022-10-11T23:07:33.915Z,7.85
2022-10-11T23:12:49.852Z,7.87
2022-10-11T23:17:14.688Z,7.87
2022-10-11T23:21:45.151Z,7.71
2022-10-11T23:26:54.912Z,7.71
2022-10-11T23:32:03.429Z,7.77
2022-10-11T23:37:11.876Z,7.77
2022-10-11T23:42:20.349Z,7.54
2022-10-11T23:47:30.104Z,7.54
2022-10-11T23:52:39.226Z,7.89
2022-10-11T23:57:48.350Z,7.89
